Time;durP1;ratioP1;P1;durP2;ratioP2;P2;SDS_P1;SDS_P2;PMS_P1;PMS_P2;Temp;Humidity;BMP_temperature;BMP_pressure;BME280_temperature;BME280_humidity;BME280_pressure;Samples;Min_cycle;Max_cycle;Signal;HPM_P1;HPM_P2
2024/01/04 00:01:27;;;;;;;4.20;0.80;;;6.00;99.90;;;;;;5125479;28;20031;-85
2024/01/04 00:03:52;;;;;;;2.83;0.70;;;6.30;99.90;;;;;;5131645;27;20023;-85
2024/01/04 00:06:20;;;;;;;3.45;0.82;;;6.00;99.90;;;;;;5113127;28;20031;-85
2024/01/04 00:08:46;;;;;;;5.30;1.15;;;6.00;99.90;;;;;;5096581;28;20065;-86
2024/01/04 00:11:11;;;;;;;2.78;0.63;;;6.60;99.90;;;;;;5094380;28;20027;-86
2024/01/04 00:13:38;;;;;;;3.83;0.90;;;6.80;99.90;;;;;;5100369;27;20035;-86
2024/01/04 00:16:09;;;;;;;3.60;1.13;;;6.10;99.90;;;;;;5114161;27;20039;-86
2024/01/04 00:18:35;;;;;;;2.28;0.93;;;6.80;99.90;;;;;;5102525;27;20027;-85
2024/01/04 00:21:02;;;;;;;3.20;0.60;;;5.90;99.90;;;;;;5115667;27;20031;-85
2024/01/04 00:23:28;;;;;;;3.72;0.90;;;6.60;99.90;;;;;;5100026;27;20027;-86
2024/01/04 00:25:54;;;;;;;3.28;1.08;;;6.60;99.90;;;;;;5090030;28;20039;-86
2024/01/04 00:28:19;;;;;;;3.10;0.70;;;6.00;99.90;;;;;;5111474;27;20032;-86
2024/01/04 00:30:45;;;;;;;3.58;0.82;;;6.00;99.90;;;;;;5113550;27;20119;-84
2024/01/04 00:33:10;;;;;;;5.00;0.70;;;5.90;99.90;;;;;;5114072;27;20063;-86
2024/01/04 00:35:36;;;;;;;4.13;0.75;;;5.90;99.90;;;;;;5100199;27;20030;-85
2024/01/04 00:38:02;;;;;;;2.35;0.70;;;5.90;99.90;;;;;;5099913;27;20041;-85
2024/01/04 00:40:30;;;;;;;6.00;0.60;;;5.90;99.90;;;;;;5110876;27;20043;-86
2024/01/04 00:42:57;;;;;;;7.45;2.50;;;5.80;99.90;;;;;;5110188;27;20043;-86
2024/01/04 00:45:23;;;;;;;5.80;0.68;;;5.80;99.90;;;;;;5092203;27;20079;-86
2024/01/04 00:47:48;;;;;;;3.35;0.88;;;6.60;99.90;;;;;;5091644;28;20482;-86
2024/01/04 00:50:15;;;;;;;2.65;1.35;;;5.80;99.90;;;;;;5093227;27;20040;-86
2024/01/04 00:52:40;;;;;;;4.57;1.00;;;5.90;99.90;;;;;;5094849;28;20123;-86
2024/01/04 00:55:07;;;;;;;3.00;0.95;;;6.50;99.90;;;;;;5112220;27;20114;-85
2024/01/04 00:57:33;;;;;;;2.83;0.80;;;5.70;99.90;;;;;;5108178;27;20031;-86
2024/01/04 00:59:59;;;;;;;6.38;0.88;;;6.10;99.90;;;;;;5095350;28;20047;-87
2024/01/04 01:02:24;;;;;;;2.03;0.50;;;5.70;99.90;;;;;;5090719;28;20067;-86
2024/01/04 01:04:50;;;;;;;5.90;0.85;;;5.70;99.90;;;;;;5093821;27;20035;-86
2024/01/04 01:07:16;;;;;;;3.25;0.88;;;5.60;99.90;;;;;;5106356;27;20048;-85
2024/01/04 01:09:41;;;;;;;2.45;0.50;;;6.60;99.90;;;;;;5105876;27;20070;-85
2024/01/04 01:12:07;;;;;;;2.88;0.60;;;6.20;99.90;;;;;;5107088;27;20043;-85
2024/01/04 01:14:33;;;;;;;4.05;0.93;;;5.60;99.90;;;;;;5104812;28;20371;-85
2024/01/04 01:16:58;;;;;;;2.40;0.63;;;5.60;99.90;;;;;;5093974;27;20047;-85
2024/01/04 01:19:24;;;;;;;4.90;0.70;;;6.00;99.90;;;;;;5106052;27;20042;-86
2024/01/04 01:21:50;;;;;;;4.78;1.20;;;5.50;99.90;;;;;;5098660;27;20038;-86
2024/01/04 01:24:15;;;;;;;3.25;0.68;;;5.50;99.90;;;;;;5107261;27;20035;-85
2024/01/04 01:26:43;;;;;;;5.65;0.80;;;5.50;99.90;;;;;;5115358;27;20035;-85
2024/01/04 01:29:09;;;;;;;3.50;0.63;;;5.50;99.90;;;;;;5103178;28;20502;-85
2024/01/04 01:31:42;;;;;;;3.45;0.68;;;6.00;99.90;;;;;;5090259;27;20633;-86
2024/01/04 01:34:08;;;;;;;3.85;0.77;;;6.20;99.90;;;;;;5089836;27;20031;-85
2024/01/04 01:36:33;;;;;;;2.65;0.70;;;6.00;99.90;;;;;;5112552;27;20110;-85
2024/01/04 01:38:59;;;;;;;2.00;0.50;;;5.50;99.90;;;;;;5108699;27;20035;-85
2024/01/04 01:41:25;;;;;;;2.05;0.70;;;5.50;99.90;;;;;;5097251;27;20110;-86
2024/01/04 01:43:51;;;;;;;3.03;0.63;;;5.50;99.90;;;;;;5113510;27;20038;-86
2024/01/04 01:46:17;;;;;;;1.75;0.77;;;5.40;99.90;;;;;;5085804;28;20043;-86
2024/01/04 01:48:43;;;;;;;4.38;0.65;;;5.50;99.90;;;;;;5094782;27;20035;-86
2024/01/04 01:51:10;;;;;;;4.05;0.93;;;5.50;99.90;;;;;;5111672;27;20427;-86
2024/01/04 01:53:37;;;;;;;2.33;0.60;;;5.40;99.90;;;;;;5113435;27;20031;-86
2024/01/04 01:56:03;;;;;;;3.83;1.27;;;5.40;99.90;;;;;;5095558;27;20043;-86
2024/01/04 01:58:29;;;;;;;3.63;0.60;;;5.40;99.90;;;;;;5111344;27;20031;-86
2024/01/04 02:00:55;;;;;;;2.53;0.50;;;5.40;99.90;;;;;;5111255;28;20402;-86
2024/01/04 02:03:22;;;;;;;1.80;0.47;;;6.30;99.90;;;;;;5090368;27;20039;-86
2024/01/04 02:05:47;;;;;;;2.25;0.80;;;6.10;99.90;;;;;;5111481;27;20071;-86
2024/01/04 02:08:13;;;;;;;2.80;0.80;;;5.30;99.90;;;;;;5110903;27;20043;-86
2024/01/04 02:10:39;;;;;;;2.63;0.70;;;6.10;99.90;;;;;;5093212;27;20039;-85
2024/01/04 02:13:05;;;;;;;3.38;0.57;;;6.00;99.90;;;;;;5110269;28;20067;-86
2024/01/04 02:15:31;;;;;;;2.20;0.47;;;5.30;99.90;;;;;;5107410;27;20035;-86
2024/01/04 02:17:57;;;;;;;4.07;0.85;;;5.20;99.90;;;;;;5085180;27;20035;-86
2024/01/04 02:20:22;;;;;;;3.55;0.60;;;5.70;99.90;;;;;;5084561;27;20042;-86
2024/01/04 02:22:51;;;;;;;3.20;0.80;;;5.10;99.90;;;;;;5096017;27;20035;-86
2024/01/04 02:25:17;;;;;;;1.80;0.68;;;5.90;99.90;;;;;;5109825;27;20047;-86
2024/01/04 02:27:42;;;;;;;3.13;0.70;;;4.90;99.90;;;;;;5090728;27;20032;-86
2024/01/04 02:30:08;;;;;;;2.40;0.60;;;4.90;99.90;;;;;;5109085;27;20095;-86
2024/01/04 02:32:34;;;;;;;3.47;0.90;;;4.90;99.90;;;;;;5112425;27;20031;-86
2024/01/04 02:35:00;;;;;;;3.72;0.70;;;5.50;99.90;;;;;;5111726;27;20054;-86
2024/01/04 02:37:25;;;;;;;0.98;0.45;;;4.90;99.90;;;;;;5085794;27;20032;-88
2024/01/04 02:39:51;;;;;;;4.10;0.85;;;4.90;99.90;;;;;;5106187;27;20119;-86
2024/01/04 02:42:16;;;;;;;5.28;0.55;;;5.40;99.90;;;;;;5107921;27;20066;-86
2024/01/04 02:44:43;;;;;;;2.30;0.70;;;4.80;99.90;;;;;;5103928;28;20075;-86
2024/01/04 02:47:08;;;;;;;4.00;0.60;;;4.80;99.90;;;;;;5108117;27;20043;-86
2024/01/04 02:49:34;;;;;;;2.97;0.65;;;4.80;99.90;;;;;;5116051;27;20406;-85
2024/01/04 02:51:59;;;;;;;3.17;0.90;;;4.80;99.90;;;;;;5096065;28;20032;-85
2024/01/04 02:54:25;;;;;;;4.45;0.60;;;4.80;99.90;;;;;;5088370;27;20068;-86
2024/01/04 02:56:50;;;;;;;3.45;0.82;;;4.90;99.90;;;;;;5097090;27;20350;-85
2024/01/04 02:59:16;;;;;;;3.17;0.50;;;4.70;99.90;;;;;;5106543;27;20031;-86
2024/01/04 03:01:43;;;;;;;3.42;0.90;;;4.60;99.90;;;;;;5091321;27;20520;-86
2024/01/04 03:04:09;;;;;;;2.78;0.63;;;4.50;99.90;;;;;;5092634;27;20475;-86
2024/01/04 03:06:35;;;;;;;2.40;0.50;;;4.50;99.90;;;;;;5113311;27;20042;-85
2024/01/04 03:09:00;;;;;;;3.63;0.70;;;4.50;99.90;;;;;;5107648;27;20039;-86
2024/01/04 03:11:26;;;;;;;3.47;0.65;;;4.50;99.90;;;;;;5110320;27;20043;-89
2024/01/04 03:13:52;;;;;;;2.13;0.75;;;4.50;99.90;;;;;;5091194;27;20080;-86
2024/01/04 03:16:20;;;;;;;3.47;0.60;;;4.50;99.90;;;;;;5114253;27;20054;-86
2024/01/04 03:18:46;;;;;;;1.77;0.40;;;5.30;99.90;;;;;;5108590;27;20057;-87
2024/01/04 03:21:13;;;;;;;1.70;0.60;;;4.40;99.90;;;;;;5107947;27;20221;-86
2024/01/04 03:23:38;;;;;;;2.83;0.52;;;4.40;99.90;;;;;;5127565;27;20111;-85
2024/01/04 03:26:04;;;;;;;2.45;0.50;;;5.30;99.90;;;;;;5128552;27;20565;-85
2024/01/04 03:28:30;;;;;;;2.92;0.50;;;3.90;99.90;;;;;;5112269;27;20096;-86
2024/01/04 03:30:56;;;;;;;2.20;0.50;;;4.30;99.90;;;;;;5092329;28;20074;-85
2024/01/04 03:33:21;;;;;;;1.88;0.68;;;4.30;99.90;;;;;;5091650;27;20034;-85
2024/01/04 03:35:47;;;;;;;6.18;1.75;;;4.30;99.90;;;;;;5105764;28;20032;-85
2024/01/04 03:38:13;;;;;;;3.05;0.63;;;4.30;99.90;;;;;;5109073;28;20414;-85
2024/01/04 03:40:38;;;;;;;2.00;0.55;;;4.40;99.90;;;;;;5102595;28;20510;-85
2024/01/04 03:43:04;;;;;;;2.72;0.70;;;4.40;99.90;;;;;;5107118;28;20035;-86
2024/01/04 03:45:33;;;;;;;6.43;1.05;;;4.40;99.90;;;;;;5104420;28;20038;-85
2024/01/04 03:48:00;;;;;;;6.68;0.80;;;5.10;99.90;;;;;;5105411;28;20048;-86
2024/01/04 03:50:26;;;;;;;1.60;0.60;;;4.40;99.90;;;;;;5108724;28;20503;-85
2024/01/04 03:52:52;;;;;;;3.65;0.80;;;4.40;99.90;;;;;;5096572;27;20035;-85
2024/01/04 03:55:18;;;;;;;4.03;0.75;;;4.30;99.90;;;;;;5116512;27;20064;-86
2024/01/04 03:57:44;;;;;;;2.03;0.60;;;4.30;99.90;;;;;;5098758;27;20027;-86
2024/01/04 04:00:10;;;;;;;2.63;0.70;;;4.30;99.90;;;;;;5117084;27;20035;-86
2024/01/04 04:02:36;;;;;;;3.92;0.70;;;4.30;99.90;;;;;;5108581;27;20579;-85
2024/01/04 04:05:02;;;;;;;3.00;0.55;;;4.30;99.90;;;;;;5110809;27;20040;-86
2024/01/04 04:07:28;;;;;;;4.85;0.70;;;4.30;99.90;;;;;;5113750;27;20039;-85
2024/01/04 04:09:53;;;;;;;2.53;0.60;;;4.20;99.90;;;;;;5107915;28;20066;-85
2024/01/04 04:12:19;;;;;;;2.58;0.77;;;4.20;99.90;;;;;;5108551;27;20098;-85
2024/01/04 04:14:45;;;;;;;4.43;0.80;;;4.30;99.90;;;;;;5088627;27;20091;-85
2024/01/04 04:17:10;;;;;;;5.90;0.70;;;4.10;99.90;;;;;;5097040;27;20039;-85
2024/01/04 04:19:36;;;;;;;3.42;1.02;;;4.00;99.90;;;;;;5090052;27;20486;-85
2024/01/04 04:22:02;;;;;;;3.50;0.50;;;4.00;99.90;;;;;;5098874;27;20517;-84
2024/01/04 04:24:27;;;;;;;1.83;0.47;;;3.90;99.90;;;;;;5115555;27;20593;-85
2024/01/04 04:26:53;;;;;;;4.50;0.75;;;3.90;99.90;;;;;;5098633;27;20043;-84
2024/01/04 04:29:18;;;;;;;3.30;0.52;;;3.80;99.90;;;;;;5098945;27;20478;-85
2024/01/04 04:31:47;;;;;;;1.95;0.70;;;4.10;99.90;;;;;;5114442;27;20036;-85
2024/01/04 04:34:13;;;;;;;3.33;0.85;;;3.80;99.90;;;;;;5094476;27;20027;-85
2024/01/04 04:36:40;;;;;;;3.20;0.70;;;3.80;99.90;;;;;;5114508;27;20409;-86
2024/01/04 04:39:07;;;;;;;2.35;0.60;;;3.90;99.90;;;;;;5107547;27;20043;-86
2024/01/04 04:41:33;;;;;;;4.45;0.95;;;4.00;99.90;;;;;;5101054;28;20042;-86
2024/01/04 04:43:58;;;;;;;2.90;0.70;;;4.00;99.90;;;;;;5107856;27;20047;-86
2024/01/04 04:46:24;;;;;;;3.10;0.77;;;4.10;99.90;;;;;;5099085;27;20035;-86
2024/01/04 04:48:54;;;;;;;3.63;1.10;;;4.10;99.90;;;;;;5114309;27;20513;-85
2024/01/04 04:51:22;;;;;;;4.43;0.75;;;5.00;99.90;;;;;;5098940;27;20142;-85
2024/01/04 04:53:48;;;;;;;2.03;0.68;;;4.10;99.90;;;;;;5086462;27;20096;-86
2024/01/04 04:56:13;;;;;;;3.55;0.60;;;4.10;99.90;;;;;;5082926;27;20043;-85
2024/01/04 04:58:39;;;;;;;3.28;0.80;;;4.10;99.90;;;;;;5098654;27;20034;-85
2024/01/04 05:01:05;;;;;;;3.00;0.60;;;4.00;99.90;;;;;;5114589;27;20061;-85
2024/01/04 05:03:31;;;;;;;2.30;0.60;;;4.30;99.90;;;;;;5095176;27;20518;-87
2024/01/04 05:05:56;;;;;;;2.75;0.70;;;3.90;99.90;;;;;;5112269;27;20093;-85
2024/01/04 05:08:23;;;;;;;2.85;0.70;;;3.90;99.90;;;;;;5110521;27;20403;-85
2024/01/04 05:10:48;;;;;;;3.38;0.65;;;3.80;99.90;;;;;;5105895;28;20459;-86
2024/01/04 05:13:14;;;;;;;6.88;0.73;;;5.00;99.90;;;;;;5104736;28;20119;-85
2024/01/04 05:15:39;;;;;;;2.95;0.70;;;3.70;99.90;;;;;;5083932;28;20027;-85
2024/01/04 05:18:08;;;;;;;3.03;0.80;;;3.60;99.90;;;;;;5086359;28;20036;-85
2024/01/04 05:20:34;;;;;;;2.97;0.70;;;3.60;99.90;;;;;;5093629;27;20031;-85
2024/01/04 05:22:59;;;;;;;2.22;0.57;;;3.60;99.90;;;;;;5114347;27;20050;-85
2024/01/04 05:25:25;;;;;;;4.63;0.60;;;3.50;99.90;;;;;;5115346;27;20062;-85
2024/01/04 05:27:51;;;;;;;5.38;0.75;;;3.50;99.90;;;;;;5112811;27;20034;-85
2024/01/04 05:30:17;;;;;;;2.13;0.70;;;3.50;99.90;;;;;;5087147;27;20047;-85
2024/01/04 05:32:43;;;;;;;3.65;0.63;;;3.40;99.90;;;;;;5114522;27;20075;-85
2024/01/04 05:35:09;;;;;;;1.40;0.50;;;3.40;99.90;;;;;;5093788;27;20066;-85
2024/01/04 05:37:35;;;;;;;3.72;0.65;;;3.40;99.90;;;;;;5110290;27;20031;-85
2024/01/04 05:40:03;;;;;;;2.33;0.70;;;3.40;99.90;;;;;;5111445;28;20062;-85
2024/01/04 05:42:29;;;;;;;1.95;0.50;;;3.30;99.90;;;;;;5114598;27;20605;-85
2024/01/04 05:44:54;;;;;;;1.33;0.60;;;3.30;99.90;;;;;;5105725;27;20122;-85
2024/01/04 05:47:20;;;;;;;2.65;0.70;;;3.30;99.90;;;;;;5111983;27;20034;-85
2024/01/04 05:49:46;;;;;;;3.83;0.68;;;3.30;99.90;;;;;;5097877;27;20397;-85
2024/01/04 05:52:12;;;;;;;3.17;0.60;;;3.30;99.90;;;;;;5081676;27;20474;-85
2024/01/04 05:54:38;;;;;;;1.33;0.40;;;3.30;99.90;;;;;;5110091;28;20046;-85
2024/01/04 05:57:04;;;;;;;3.40;0.60;;;3.30;99.90;;;;;;5081873;27;20451;-85
2024/01/04 05:59:30;;;;;;;3.28;0.55;;;3.30;99.90;;;;;;5089441;27;20035;-85
2024/01/04 06:01:56;;;;;;;2.90;0.50;;;3.30;99.90;;;;;;5097474;27;20102;-85
2024/01/04 06:04:21;;;;;;;3.80;1.30;;;3.30;99.90;;;;;;5102303;28;20506;-85
2024/01/04 06:06:47;;;;;;;4.85;0.70;;;3.30;99.90;;;;;;5104837;27;20031;-85
2024/01/04 06:09:13;;;;;;;3.60;0.57;;;3.30;99.90;;;;;;5081399;27;20096;-85
2024/01/04 06:11:39;;;;;;;2.28;0.60;;;3.60;99.90;;;;;;5084541;28;20077;-85
2024/01/04 06:14:07;;;;;;;3.17;0.65;;;3.20;99.90;;;;;;5089791;28;20035;-85
2024/01/04 06:16:33;;;;;;;1.52;0.57;;;3.20;99.90;;;;;;5102749;27;20405;-85
2024/01/04 06:18:59;;;;;;;2.30;0.52;;;3.20;99.90;;;;;;5111762;27;20042;-85
2024/01/04 06:21:25;;;;;;;2.22;0.73;;;3.20;99.90;;;;;;5095987;27;20126;-85
2024/01/04 06:23:51;;;;;;;2.65;0.50;;;3.20;99.90;;;;;;5113428;27;20059;-85
2024/01/04 06:26:18;;;;;;;1.60;0.35;;;3.10;99.90;;;;;;5095589;27;20031;-85
2024/01/04 06:28:44;;;;;;;2.75;1.20;;;3.10;99.90;;;;;;5104395;28;20424;-85
2024/01/04 06:31:09;;;;;;;2.80;1.33;;;3.10;99.90;;;;;;5106700;27;20083;-85
2024/01/04 06:33:35;;;;;;;2.40;0.90;;;3.10;99.90;;;;;;5114802;27;20517;-85
2024/01/04 06:36:02;;;;;;;5.32;0.90;;;3.00;99.90;;;;;;5111621;27;20111;-85
2024/01/04 06:38:28;;;;;;;1.65;0.55;;;3.00;99.90;;;;;;5085873;28;20119;-86
2024/01/04 06:40:57;;;;;;;2.25;0.70;;;3.20;99.90;;;;;;5090652;27;20102;-85
2024/01/04 06:43:23;;;;;;;3.17;0.70;;;2.90;99.90;;;;;;5110912;27;20505;-85
2024/01/04 06:45:49;;;;;;;4.32;0.60;;;2.90;99.90;;;;;;5114712;27;20027;-85
2024/01/04 06:48:15;;;;;;;3.50;0.88;;;2.90;99.90;;;;;;5113465;27;20067;-85
2024/01/04 06:50:43;;;;;;;6.00;1.00;;;2.80;99.90;;;;;;5110541;27;20118;-85
2024/01/04 06:53:10;;;;;;;2.10;0.70;;;2.80;99.90;;;;;;5085463;28;20044;-85
2024/01/04 06:55:35;;;;;;;1.65;0.68;;;2.80;99.90;;;;;;5108988;27;20031;-85
2024/01/04 06:58:04;;;;;;;1.60;0.70;;;2.80;99.90;;;;;;5109223;27;20521;-85
2024/01/04 07:00:30;;;;;;;2.00;0.65;;;2.70;99.90;;;;;;5090808;27;20038;-85
2024/01/04 07:02:55;;;;;;;3.35;0.80;;;2.70;99.90;;;;;;5087928;28;20032;-84
2024/01/04 07:05:21;;;;;;;2.70;0.68;;;2.70;99.90;;;;;;5085379;27;20035;-84
2024/01/04 07:07:47;;;;;;;4.75;1.33;;;2.70;99.90;;;;;;5112314;27;20042;-85
2024/01/04 07:10:14;;;;;;;3.88;0.68;;;2.70;99.90;;;;;;5079611;28;20066;-85
2024/01/04 07:12:41;;;;;;;1.80;0.68;;;2.80;99.90;;;;;;5105929;27;20035;-85
2024/01/04 07:15:06;;;;;;;1.40;0.70;;;2.70;99.90;;;;;;5114206;27;20418;-85
2024/01/04 07:17:32;;;;;;;3.40;0.75;;;2.60;99.90;;;;;;5107840;27;20031;-85
2024/01/04 07:19:58;;;;;;;2.25;0.80;;;2.60;99.90;;;;;;5110323;27;20070;-85
2024/01/04 07:22:23;;;;;;;1.80;0.77;;;2.50;99.90;;;;;;5113746;27;20039;-85
2024/01/04 07:24:49;;;;;;;3.83;0.63;;;2.60;99.90;;;;;;5109771;27;20054;-85
2024/01/04 07:27:14;;;;;;;3.00;1.00;;;2.60;99.90;;;;;;5100098;27;20035;-85
2024/01/04 07:29:40;;;;;;;2.58;0.80;;;2.50;99.90;;;;;;5103914;28;20096;-84
2024/01/04 07:32:06;;;;;;;1.98;0.70;;;2.50;99.90;;;;;;5088725;28;20039;-85
2024/01/04 07:34:36;;;;;;;3.78;0.80;;;2.50;99.90;;;;;;5106074;28;20036;-85
2024/01/04 07:37:02;;;;;;;3.50;1.00;;;2.50;99.90;;;;;;5101403;27;20081;-85
2024/01/04 07:39:28;;;;;;;3.97;1.00;;;2.50;99.90;;;;;;5094591;27;20035;-85
2024/01/04 07:41:53;;;;;;;2.97;0.80;;;3.40;99.90;;;;;;5113544;27;20053;-85
2024/01/04 07:44:19;;;;;;;3.47;0.80;;;2.50;99.90;;;;;;5095937;28;20510;-84
2024/01/04 07:46:44;;;;;;;2.38;0.90;;;2.50;99.90;;;;;;5096644;28;20582;-84
2024/01/04 07:49:10;;;;;;;1.85;0.77;;;2.50;99.90;;;;;;5104660;28;20039;-85
2024/01/04 07:51:37;;;;;;;2.15;0.90;;;2.50;99.90;;;;;;5098753;28;20084;-85
2024/01/04 07:54:02;;;;;;;2.90;0.90;;;2.40;99.90;;;;;;5082179;28;20036;-85
2024/01/04 07:56:28;;;;;;;2.22;0.85;;;2.40;99.90;;;;;;5083893;28;20093;-84
2024/01/04 07:58:53;;;;;;;2.08;0.70;;;2.40;99.90;;;;;;5085184;28;20487;-85
2024/01/04 08:01:19;;;;;;;4.40;1.08;;;2.30;99.90;;;;;;5100214;28;20067;-84
2024/01/04 08:03:45;;;;;;;2.40;0.90;;;2.40;99.90;;;;;;5101501;28;20104;-85
2024/01/04 08:06:10;;;;;;;3.30;0.80;;;2.90;99.90;;;;;;5102465;28;20042;-85
2024/01/04 08:08:36;;;;;;;1.98;0.80;;;2.30;99.90;;;;;;5084457;28;20470;-85
2024/01/04 08:11:02;;;;;;;3.33;1.05;;;2.30;99.90;;;;;;5113189;28;20031;-85
2024/01/04 08:13:28;;;;;;;4.72;2.60;;;2.30;99.90;;;;;;5093934;28;20414;-84
2024/01/04 08:15:54;;;;;;;4.80;1.98;;;2.90;99.90;;;;;;5081951;28;20027;-85
2024/01/04 08:18:21;;;;;;;6.15;1.90;;;2.30;99.90;;;;;;5099207;28;20077;-85
2024/01/04 08:20:50;;;;;;;6.05;1.90;;;2.20;99.90;;;;;;5101190;28;20035;-84
2024/01/04 08:23:16;;;;;;;4.32;1.90;;;2.20;99.90;;;;;;5102284;28;20035;-85
2024/01/04 08:25:41;;;;;;;2.65;1.55;;;2.20;99.90;;;;;;5081499;28;20042;-84
2024/01/04 08:28:10;;;;;;;4.45;2.15;;;2.20;99.90;;;;;;5101371;28;20035;-84
2024/01/04 08:30:36;;;;;;;6.18;2.00;;;2.20;99.90;;;;;;5113015;28;20041;-85
2024/01/04 08:33:01;;;;;;;3.75;1.85;;;2.30;99.90;;;;;;5095958;28;20406;-85
2024/01/04 08:35:27;;;;;;;3.53;1.42;;;2.20;99.90;;;;;;5102575;28;20039;-85
2024/01/04 08:37:53;;;;;;;3.50;1.60;;;2.30;99.90;;;;;;5089038;27;20031;-85
2024/01/04 08:40:18;;;;;;;3.03;1.42;;;2.30;99.90;;;;;;5115485;27;20387;-85
2024/01/04 08:42:44;;;;;;;2.80;1.25;;;2.30;99.90;;;;;;5114845;27;20409;-85
2024/01/04 08:45:13;;;;;;;3.47;1.23;;;2.30;99.90;;;;;;5114801;27;20047;-85
2024/01/04 08:47:40;;;;;;;6.35;1.48;;;2.50;99.90;;;;;;5095516;28;20118;-85
2024/01/04 08:50:06;;;;;;;3.72;1.23;;;2.30;99.90;;;;;;5089705;27;20050;-85
2024/01/04 08:52:32;;;;;;;5.93;1.50;;;2.20;99.90;;;;;;5114779;27;20602;-85
2024/01/04 08:54:58;;;;;;;5.03;2.85;;;2.20;99.90;;;;;;5114842;27;20196;-85
2024/01/04 08:57:24;;;;;;;6.70;3.60;;;2.20;99.90;;;;;;5097618;27;20031;-85
2024/01/04 08:59:49;;;;;;;6.63;4.32;;;2.20;99.90;;;;;;5099514;27;20031;-84
2024/01/04 09:02:15;;;;;;;8.40;4.10;;;2.20;99.90;;;;;;5116412;27;20047;-85
2024/01/04 09:04:40;;;;;;;6.60;4.00;;;2.30;99.90;;;;;;5116575;27;20034;-86
2024/01/04 09:07:08;;;;;;;8.27;4.63;;;2.40;99.90;;;;;;5116588;27;20035;-85
2024/01/04 09:09:34;;;;;;;4.60;3.20;;;2.50;99.90;;;;;;5114883;27;20042;-85
2024/01/04 09:12:00;;;;;;;6.55;3.00;;;2.60;99.90;;;;;;5116658;27;20142;-85
2024/01/04 09:14:26;;;;;;;5.70;3.20;;;2.50;99.90;;;;;;5117084;27;20520;-85
2024/01/04 09:16:51;;;;;;;6.28;3.50;;;2.60;99.90;;;;;;5109456;28;20071;-85
2024/01/04 09:19:19;;;;;;;4.40;2.90;;;2.50;99.90;;;;;;5100435;27;20031;-85
2024/01/04 09:21:49;;;;;;;4.32;2.60;;;2.60;99.90;;;;;;5091999;27;20031;-85
2024/01/04 09:24:17;;;;;;;5.32;2.33;;;2.90;99.90;;;;;;5097265;27;20138;-85
2024/01/04 09:26:43;;;;;;;4.25;2.08;;;2.80;99.90;;;;;;5094370;28;20039;-85
2024/01/04 09:29:10;;;;;;;3.83;2.33;;;2.90;99.90;;;;;;5112274;27;20046;-84
2024/01/04 09:31:36;;;;;;;3.92;2.30;;;2.90;99.90;;;;;;5115388;27;20049;-85
2024/01/04 09:34:03;;;;;;;3.97;2.38;;;3.00;99.90;;;;;;5100585;28;20032;-85
2024/01/04 09:36:29;;;;;;;6.50;2.85;;;3.00;99.90;;;;;;5083874;28;20043;-85
2024/01/04 09:38:57;;;;;;;5.47;2.92;;;3.10;99.90;;;;;;5096480;27;20426;-85
2024/01/04 09:41:28;;;;;;;5.50;2.45;;;3.20;99.90;;;;;;5098046;27;20513;-85
2024/01/04 09:43:56;;;;;;;3.30;1.73;;;3.20;99.90;;;;;;5083451;28;20034;-85
2024/01/04 09:46:25;;;;;;;4.03;1.20;;;3.20;99.90;;;;;;5085862;27;20491;-84
2024/01/04 09:49:00;;;;;;;4.90;1.30;;;3.20;99.90;;;;;;5102546;28;20372;-85
2024/01/04 09:51:28;;;;;;;3.95;1.00;;;3.30;99.90;;;;;;5085468;28;20036;-84
2024/01/04 09:53:54;;;;;;;2.13;0.90;;;3.30;99.90;;;;;;5113528;27;20042;-84
2024/01/04 09:56:24;;;;;;;2.03;0.95;;;3.30;99.90;;;;;;5113429;27;20069;-85
2024/01/04 09:58:50;;;;;;;3.70;1.30;;;3.30;99.90;;;;;;5092593;27;20043;-85
2024/01/04 10:01:23;;;;;;;3.50;1.05;;;3.40;99.90;;;;;;5112264;27;20046;-84
2024/01/04 10:03:49;;;;;;;6.80;1.73;;;3.50;99.90;;;;;;5109936;28;20036;-85
2024/01/04 10:06:44;;;;;;;3.55;1.25;;;3.60;99.90;;;;;;5114346;27;20036;-85
2024/01/04 10:09:35;;;;;;;4.82;1.40;;;3.60;99.90;;;;;;5098622;27;20049;-85
2024/01/04 10:12:07;;;;;;;5.82;1.70;;;3.70;99.90;;;;;;5112988;27;20074;-85
2024/01/04 10:14:34;;;;;;;4.45;1.30;;;3.70;99.90;;;;;;5111460;27;20439;-85
2024/01/04 10:17:00;;;;;;;3.22;1.27;;;3.70;99.90;;;;;;5090537;27;20497;-86
2024/01/04 10:19:27;;;;;;;1.83;1.30;;;3.60;99.90;;;;;;5086411;27;20038;-87
2024/01/04 10:21:52;;;;;;;4.18;1.85;;;3.60;99.90;;;;;;5102784;27;20063;-86
2024/01/04 10:24:25;;;;;;;4.63;1.75;;;3.50;99.90;;;;;;5099995;27;20649;-86
2024/01/04 10:26:59;;;;;;;2.58;1.52;;;3.50;99.90;;;;;;5103752;27;20039;-86
2024/01/04 10:29:28;;;;;;;4.50;1.55;;;4.20;99.90;;;;;;5088611;27;20062;-86
2024/01/04 10:32:10;;;;;;;3.22;1.40;;;3.50;99.90;;;;;;5107539;27;20080;-86
2024/01/04 10:34:36;;;;;;;5.43;1.52;;;3.50;99.90;;;;;;5114185;27;20028;-86
2024/01/04 10:37:22;;;;;;;2.95;1.20;;;3.60;99.90;;;;;;5112960;27;20360;-86
2024/01/04 10:39:59;;;;;;;3.78;1.20;;;3.70;99.90;;;;;;5114122;27;20490;-86
2024/01/04 10:42:24;;;;;;;3.35;1.08;;;4.60;99.90;;;;;;5112569;27;20039;-85
2024/01/04 10:44:54;;;;;;;3.55;1.10;;;3.90;99.90;;;;;;5112803;27;20080;-86
2024/01/04 10:47:20;;;;;;;4.20;1.13;;;4.00;99.90;;;;;;5095519;27;20043;-86
2024/01/04 10:49:47;;;;;;;3.80;1.20;;;4.10;99.90;;;;;;5113351;27;20085;-86
2024/01/04 10:52:18;;;;;;;1.38;0.50;;;5.00;99.90;;;;;;5095232;27;20070;-86
2024/01/04 10:54:44;;;;;;;3.75;0.70;;;4.20;99.90;;;;;;5089566;28;20031;-86
2024/01/04 10:57:11;;;;;;;1.98;0.50;;;4.30;99.90;;;;;;5101361;28;20105;-86
2024/01/04 10:59:39;;;;;;;1.35;0.70;;;4.30;99.90;;;;;;5096648;27;20031;-86
2024/01/04 11:02:07;;;;;;;3.13;0.80;;;4.40;99.90;;;;;;5077261;28;20076;-86
2024/01/04 11:04:34;;;;;;;3.28;0.73;;;4.40;99.90;;;;;;5093665;27;20039;-86
2024/01/04 11:07:01;;;;;;;5.53;0.75;;;5.50;99.90;;;;;;5083464;28;20039;-88
2024/01/04 11:09:26;;;;;;;3.22;0.88;;;4.50;99.90;;;;;;5109419;27;20603;-86
2024/01/04 11:11:53;;;;;;;1.60;0.80;;;4.60;99.90;;;;;;5110078;27;20043;-86
2024/01/04 11:14:20;;;;;;;3.38;0.60;;;4.70;99.90;;;;;;5112463;27;20027;-86
2024/01/04 11:16:55;;;;;;;1.35;0.68;;;4.80;99.90;;;;;;5108344;28;20061;-86
2024/01/04 11:19:56;;;;;;;3.20;1.00;;;4.90;99.90;;;;;;5083629;27;20043;-86
2024/01/04 11:22:53;;;;;;;2.70;1.00;;;5.00;99.90;;;;;;5103677;27;20117;-86
2024/01/04 11:25:31;;;;;;;5.38;1.00;;;5.00;99.90;;;;;;5082039;28;20047;-86
2024/01/04 11:27:57;;;;;;;3.97;1.00;;;4.80;99.90;;;;;;5092322;28;20040;-86
2024/01/04 11:30:23;;;;;;;1.25;0.70;;;4.80;99.90;;;;;;5105162;27;20039;-86
2024/01/04 11:32:49;;;;;;;2.30;0.68;;;4.80;99.90;;;;;;5096467;28;20035;-86
2024/01/04 11:35:15;;;;;;;2.97;0.90;;;4.70;99.90;;;;;;5110537;28;20035;-85
2024/01/04 11:37:45;;;;;;;1.45;0.65;;;5.70;99.90;;;;;;5098876;28;20596;-84
2024/01/04 11:40:11;;;;;;;1.52;0.77;;;4.70;99.90;;;;;;5104702;27;20135;-84
2024/01/04 11:42:38;;;;;;;2.17;0.70;;;4.80;99.90;;;;;;5081224;28;20036;-85
2024/01/04 11:45:06;;;;;;;1.63;0.70;;;4.80;99.90;;;;;;5108516;28;20035;-83
2024/01/04 11:47:39;;;;;;;2.17;0.60;;;4.90;99.90;;;;;;5085029;28;20486;-85
2024/01/04 11:50:18;;;;;;;3.90;0.80;;;4.80;99.90;;;;;;5095469;28;20139;-85
2024/01/04 11:52:45;;;;;;;2.83;0.80;;;4.90;99.90;;;;;;5107280;28;20043;-85
2024/01/04 11:55:21;;;;;;;3.35;0.68;;;4.90;99.90;;;;;;5095269;28;20509;-85
2024/01/04 11:57:47;;;;;;;3.65;0.90;;;4.90;99.90;;;;;;5098475;28;20031;-85
2024/01/04 12:00:16;;;;;;;3.65;0.70;;;4.90;99.90;;;;;;5080077;28;20690;-84
2024/01/04 12:02:41;;;;;;;2.20;0.82;;;4.90;99.90;;;;;;5103589;28;20390;-84
2024/01/04 12:05:07;;;;;;;2.40;0.75;;;4.90;99.90;;;;;;5089036;28;20039;-84
2024/01/04 12:07:35;;;;;;;2.33;0.98;;;4.90;99.90;;;;;;5106209;28;20042;-85
2024/01/04 12:10:01;;;;;;;1.67;0.85;;;4.90;99.90;;;;;;5113458;28;20043;-85
2024/01/04 12:12:27;;;;;;;4.03;1.08;;;5.00;99.90;;;;;;5099909;27;20067;-84
2024/01/04 12:14:52;;;;;;;2.63;0.70;;;5.00;99.90;;;;;;5111607;27;20074;-85
2024/01/04 12:17:18;;;;;;;1.65;0.88;;;5.10;99.90;;;;;;5089024;27;20470;-85
2024/01/04 12:19:44;;;;;;;2.83;1.10;;;5.20;99.90;;;;;;5097611;27;20148;-85
2024/01/04 12:22:10;;;;;;;3.72;1.30;;;5.30;99.90;;;;;;5108174;27;20505;-84
2024/01/04 12:24:42;;;;;;;2.30;1.10;;;5.40;99.90;;;;;;5105476;27;20039;-85
2024/01/04 12:27:08;;;;;;;2.15;1.00;;;5.40;99.90;;;;;;5107365;27;20047;-85
2024/01/04 12:29:34;;;;;;;3.83;1.00;;;5.40;99.90;;;;;;5106117;27;20031;-85
2024/01/04 12:32:00;;;;;;;6.60;1.20;;;5.40;99.90;;;;;;5109704;27;20039;-85
2024/01/04 12:34:25;;;;;;;2.35;1.00;;;5.40;99.90;;;;;;5090691;27;20119;-86
2024/01/04 12:36:51;;;;;;;3.63;1.65;;;6.50;99.90;;;;;;5096710;27;20118;-85
2024/01/04 12:39:16;;;;;;;4.70;1.33;;;5.70;99.90;;;;;;5112251;27;20034;-85
2024/01/04 12:41:47;;;;;;;5.07;1.65;;;5.80;99.90;;;;;;5104758;27;20039;-85
2024/01/04 12:44:13;;;;;;;7.68;1.83;;;6.10;99.90;;;;;;5104828;27;20043;-84
2024/01/04 12:46:39;;;;;;;2.38;1.08;;;5.90;99.90;;;;;;5108672;27;20035;-85
2024/01/04 12:49:10;;;;;;;1.90;0.85;;;6.40;99.90;;;;;;5097594;28;20044;-85
2024/01/04 12:51:40;;;;;;;2.53;0.80;;;6.10;99.90;;;;;;5094727;27;20035;-85
2024/01/04 12:54:10;;;;;;;1.48;0.77;;;6.90;99.90;;;;;;5089940;27;20047;-85
2024/01/04 12:56:37;;;;;;;3.25;0.90;;;6.50;99.90;;;;;;5087256;27;20040;-85